sensor_id;sensor_type;location;lat;lon;timestamp;temperature;humidity
11144;DHT22;5626;44.730;10.276;2022-10-26T00:01:51;17.60;99.90
11144;DHT22;5626;44.730;10.276;2022-10-26T00:04:21;17.60;99.90
11144;DHT22;5626;44.730;10.276;2022-10-26T00:06:52;17.60;99.90
11144;DHT22;5626;44.730;10.276;2022-10-26T00:09:21;17.70;99.90
11144;DHT22;5626;44.730;10.276;2022-10-26T00:11:51;17.70;99.90
11144;DHT22;5626;44.730;10.276;2022-10-26T00:14:21;17.70;99.90
11144;DHT22;5626;44.730;10.276;2022-10-26T00:16:50;17.70;99.90
11144;DHT22;5626;44.730;10.276;2022-10-26T00:19:20;17.70;99.90
11144;DHT22;5626;44.730;10.276;2022-10-26T00:21:50;17.60;99.90
11144;DHT22;5626;44.730;10.276;2022-10-26T00:24:21;17.50;99.90
11144;DHT22;5626;44.730;10.276;2022-10-26T00:26:50;17.40;99.90
11144;DHT22;5626;44.730;10.276;2022-10-26T00:29:20;17.30;99.90
11144;DHT22;5626;44.730;10.276;2022-10-26T00:31:49;17.30;99.90
11144;DHT22;5626;44.730;10.276;2022-10-26T00:34:19;17.20;99.90
11144;DHT22;5626;44.730;10.276;2022-10-26T00:36:48;17.20;99.90
11144;DHT22;5626;44.730;10.276;2022-10-26T00:39:20;17.20;99.90
11144;DHT22;5626;44.730;10.276;2022-10-26T00:41:50;17.00;99.90
11144;DHT22;5626;44.730;10.276;2022-10-26T00:44:54;17.00;99.90
11144;DHT22;5626;44.730;10.276;2022-10-26T00:47:32;17.00;99.90
11144;DHT22;5626;44.730;10.276;2022-10-26T00:50:07;16.90;99.90
11144;DHT22;5626;44.730;10.276;2022-10-26T00:52:38;16.90;99.90
11144;DHT22;5626;44.730;10.276;2022-10-26T00:55:10;16.80;99.90
11144;DHT22;5626;44.730;10.276;2022-10-26T00:57:39;16.80;99.90
11144;DHT22;5626;44.730;10.276;2022-10-26T01:00:10;16.80;99.90
11144;DHT22;5626;44.730;10.276;2022-10-26T01:02:40;16.70;99.90
11144;DHT22;5626;44.730;10.276;2022-10-26T01:05:10;16.70;99.90
11144;DHT22;5626;44.730;10.276;2022-10-26T01:07:41;16.70;99.90
11144;DHT22;5626;44.730;10.276;2022-10-26T01:10:12;16.60;99.90
11144;DHT22;5626;44.730;10.276;2022-10-26T01:12:42;16.60;99.90
11144;DHT22;5626;44.730;10.276;2022-10-26T01:15:12;16.60;99.90
11144;DHT22;5626;44.730;10.276;2022-10-26T01:17:53;16.60;99.90
11144;DHT22;5626;44.730;10.276;2022-10-26T01:20:46;16.60;99.90
11144;DHT22;5626;44.730;10.276;2022-10-26T01:23:29;16.60;99.90
11144;DHT22;5626;44.730;10.276;2022-10-26T01:26:20;16.60;99.90
11144;DHT22;5626;44.730;10.276;2022-10-26T01:29:15;16.60;99.90
11144;DHT22;5626;44.730;10.276;2022-10-26T01:31:57;16.50;99.90
11144;DHT22;5626;44.730;10.276;2022-10-26T01:34:32;16.50;99.90
11144;DHT22;5626;44.730;10.276;2022-10-26T01:37:05;16.40;99.90
11144;DHT22;5626;44.730;10.276;2022-10-26T01:39:43;16.40;99.90
11144;DHT22;5626;44.730;10.276;2022-10-26T01:42:15;16.40;99.90
11144;DHT22;5626;44.730;10.276;2022-10-26T01:44:50;16.30;99.90
11144;DHT22;5626;44.730;10.276;2022-10-26T01:47:23;16.30;99.90
11144;DHT22;5626;44.730;10.276;2022-10-26T01:49:54;16.30;99.90
11144;DHT22;5626;44.730;10.276;2022-10-26T01:52:25;16.30;99.90
11144;DHT22;5626;44.730;10.276;2022-10-26T01:55:00;16.30;99.90
11144;DHT22;5626;44.730;10.276;2022-10-26T01:57:32;16.30;99.90
11144;DHT22;5626;44.730;10.276;2022-10-26T02:00:05;16.30;99.90
11144;DHT22;5626;44.730;10.276;2022-10-26T02:02:47;16.30;99.90
11144;DHT22;5626;44.730;10.276;2022-10-26T02:05:34;16.30;99.90
11144;DHT22;5626;44.730;10.276;2022-10-26T02:08:29;16.20;99.90
11144;DHT22;5626;44.730;10.276;2022-10-26T02:11:10;16.10;99.90
11144;DHT22;5626;44.730;10.276;2022-10-26T02:13:47;16.00;99.90
11144;DHT22;5626;44.730;10.276;2022-10-26T02:16:23;16.00;99.90
11144;DHT22;5626;44.730;10.276;2022-10-26T02:19:00;16.00;99.90
11144;DHT22;5626;44.730;10.276;2022-10-26T02:21:36;15.90;99.90
11144;DHT22;5626;44.730;10.276;2022-10-26T02:24:08;15.90;99.90
11144;DHT22;5626;44.730;10.276;2022-10-26T02:26:39;16.00;99.90
11144;DHT22;5626;44.730;10.276;2022-10-26T02:29:14;16.00;99.90
11144;DHT22;5626;44.730;10.276;2022-10-26T02:31:46;16.00;99.90
11144;DHT22;5626;44.730;10.276;2022-10-26T02:34:20;16.10;99.90
11144;DHT22;5626;44.730;10.276;2022-10-26T02:36:53;16.10;99.90
11144;DHT22;5626;44.730;10.276;2022-10-26T02:39:27;16.10;99.90
11144;DHT22;5626;44.730;10.276;2022-10-26T02:42:01;16.00;99.90
11144;DHT22;5626;44.730;10.276;2022-10-26T02:44:33;16.10;99.90
11144;DHT22;5626;44.730;10.276;2022-10-26T02:47:04;16.10;99.90
11144;DHT22;5626;44.730;10.276;2022-10-26T02:49:35;16.10;99.90
11144;DHT22;5626;44.730;10.276;2022-10-26T02:52:10;16.10;99.90
11144;DHT22;5626;44.730;10.276;2022-10-26T02:54:47;16.10;99.90
11144;DHT22;5626;44.730;10.276;2022-10-26T02:57:21;16.10;99.90
11144;DHT22;5626;44.730;10.276;2022-10-26T02:59:53;16.10;99.90
11144;DHT22;5626;44.730;10.276;2022-10-26T03:02:23;16.00;99.90
11144;DHT22;5626;44.730;10.276;2022-10-26T03:04:55;16.00;99.90
11144;DHT22;5626;44.730;10.276;2022-10-26T03:07:24;16.00;99.90
11144;DHT22;5626;44.730;10.276;2022-10-26T03:09:54;16.00;99.90
11144;DHT22;5626;44.730;10.276;2022-10-26T03:12:23;16.00;99.90
11144;DHT22;5626;44.730;10.276;2022-10-26T03:14:53;15.90;99.90
11144;DHT22;5626;44.730;10.276;2022-10-26T03:17:22;15.90;99.90
11144;DHT22;5626;44.730;10.276;2022-10-26T03:19:53;15.80;99.90
11144;DHT22;5626;44.730;10.276;2022-10-26T03:22:23;15.80;99.90
11144;DHT22;5626;44.730;10.276;2022-10-26T03:24:52;15.80;99.90
11144;DHT22;5626;44.730;10.276;2022-10-26T03:27:22;15.70;99.90
11144;DHT22;5626;44.730;10.276;2022-10-26T03:29:51;15.80;99.90
11144;DHT22;5626;44.730;10.276;2022-10-26T03:32:21;15.80;99.90
11144;DHT22;5626;44.730;10.276;2022-10-26T03:34:50;15.80;99.90
11144;DHT22;5626;44.730;10.276;2022-10-26T03:37:21;15.80;99.90
11144;DHT22;5626;44.730;10.276;2022-10-26T03:39:51;15.80;99.90
11144;DHT22;5626;44.730;10.276;2022-10-26T03:42:20;15.80;99.90
11144;DHT22;5626;44.730;10.276;2022-10-26T03:44:49;15.80;99.90
11144;DHT22;5626;44.730;10.276;2022-10-26T03:47:19;15.80;99.90
11144;DHT22;5626;44.730;10.276;2022-10-26T03:49:48;15.80;99.90
11144;DHT22;5626;44.730;10.276;2022-10-26T03:52:18;15.90;99.90
11144;DHT22;5626;44.730;10.276;2022-10-26T03:54:49;15.90;99.90
11144;DHT22;5626;44.730;10.276;2022-10-26T03:57:18;15.90;99.90
11144;DHT22;5626;44.730;10.276;2022-10-26T03:59:48;15.80;99.90
11144;DHT22;5626;44.730;10.276;2022-10-26T04:02:17;15.80;99.90
11144;DHT22;5626;44.730;10.276;2022-10-26T04:04:47;15.80;99.90
11144;DHT22;5626;44.730;10.276;2022-10-26T04:07:16;15.80;99.90
11144;DHT22;5626;44.730;10.276;2022-10-26T04:09:46;15.70;99.90
11144;DHT22;5626;44.730;10.276;2022-10-26T04:12:17;15.70;99.90
11144;DHT22;5626;44.730;10.276;2022-10-26T04:14:46;15.70;99.90
11144;DHT22;5626;44.730;10.276;2022-10-26T04:17:16;15.60;99.90
11144;DHT22;5626;44.730;10.276;2022-10-26T04:19:45;15.60;99.90
11144;DHT22;5626;44.730;10.276;2022-10-26T04:22:15;15.60;99.90
11144;DHT22;5626;44.730;10.276;2022-10-26T04:24:44;15.60;99.90
11144;DHT22;5626;44.730;10.276;2022-10-26T04:27:14;15.50;99.90
11144;DHT22;5626;44.730;10.276;2022-10-26T04:29:44;15.50;99.90
11144;DHT22;5626;44.730;10.276;2022-10-26T04:32:14;15.50;99.90
11144;DHT22;5626;44.730;10.276;2022-10-26T04:34:43;15.50;99.90
11144;DHT22;5626;44.730;10.276;2022-10-26T04:37:13;15.50;99.90
11144;DHT22;5626;44.730;10.276;2022-10-26T04:39:42;15.50;99.90
11144;DHT22;5626;44.730;10.276;2022-10-26T04:42:12;15.40;99.90
11144;DHT22;5626;44.730;10.276;2022-10-26T04:44:41;15.40;99.90
11144;DHT22;5626;44.730;10.276;2022-10-26T04:47:12;15.50;99.90
11144;DHT22;5626;44.730;10.276;2022-10-26T04:49:41;15.50;99.90
11144;DHT22;5626;44.730;10.276;2022-10-26T04:52:11;15.50;99.90
11144;DHT22;5626;44.730;10.276;2022-10-26T04:54:40;15.60;99.90
11144;DHT22;5626;44.730;10.276;2022-10-26T04:57:10;15.60;99.90
11144;DHT22;5626;44.730;10.276;2022-10-26T04:59:39;15.60;99.90
11144;DHT22;5626;44.730;10.276;2022-10-26T05:02:09;15.50;99.90
11144;DHT22;5626;44.730;10.276;2022-10-26T05:04:40;15.50;99.90
11144;DHT22;5626;44.730;10.276;2022-10-26T05:07:09;15.40;99.90
11144;DHT22;5626;44.730;10.276;2022-10-26T05:09:39;15.40;99.90
11144;DHT22;5626;44.730;10.276;2022-10-26T05:12:08;15.40;99.90
11144;DHT22;5626;44.730;10.276;2022-10-26T05:14:37;15.40;99.90
11144;DHT22;5626;44.730;10.276;2022-10-26T05:17:07;15.40;99.90
11144;DHT22;5626;44.730;10.276;2022-10-26T05:19:36;15.40;99.90
11144;DHT22;5626;44.730;10.276;2022-10-26T05:22:07;15.40;99.90
11144;DHT22;5626;44.730;10.276;2022-10-26T05:24:37;15.60;99.90
11144;DHT22;5626;44.730;10.276;2022-10-26T05:27:06;15.60;99.90
11144;DHT22;5626;44.730;10.276;2022-10-26T05:29:36;15.70;99.90
11144;DHT22;5626;44.730;10.276;2022-10-26T05:32:05;15.70;99.90
11144;DHT22;5626;44.730;10.276;2022-10-26T05:34:35;15.80;99.90
11144;DHT22;5626;44.730;10.276;2022-10-26T05:37:05;15.90;99.90
11144;DHT22;5626;44.730;10.276;2022-10-26T05:39:35;16.00;99.90
11144;DHT22;5626;44.730;10.276;2022-10-26T05:42:05;16.00;99.90
11144;DHT22;5626;44.730;10.276;2022-10-26T05:44:34;16.00;99.90
11144;DHT22;5626;44.730;10.276;2022-10-26T05:47:05;16.00;99.90
11144;DHT22;5626;44.730;10.276;2022-10-26T05:49:35;16.00;99.90
11144;DHT22;5626;44.730;10.276;2022-10-26T05:52:04;16.00;99.90
11144;DHT22;5626;44.730;10.276;2022-10-26T05:54:35;16.10;99.90
11144;DHT22;5626;44.730;10.276;2022-10-26T05:57:08;16.20;99.90
11144;DHT22;5626;44.730;10.276;2022-10-26T05:59:38;16.20;99.90
11144;DHT22;5626;44.730;10.276;2022-10-26T06:02:16;16.20;99.90
11144;DHT22;5626;44.730;10.276;2022-10-26T06:04:48;16.20;99.90
11144;DHT22;5626;44.730;10.276;2022-10-26T06:07:18;16.30;99.90
11144;DHT22;5626;44.730;10.276;2022-10-26T06:09:50;16.30;99.90
11144;DHT22;5626;44.730;10.276;2022-10-26T06:12:20;16.30;99.90
11144;DHT22;5626;44.730;10.276;2022-10-26T06:14:50;16.40;99.90
11144;DHT22;5626;44.730;10.276;2022-10-26T06:17:38;16.60;99.90
11144;DHT22;5626;44.730;10.276;2022-10-26T06:20:32;16.70;99.90
11144;DHT22;5626;44.730;10.276;2022-10-26T06:23:23;16.80;99.90
11144;DHT22;5626;44.730;10.276;2022-10-26T06:26:05;16.90;99.90
11144;DHT22;5626;44.730;10.276;2022-10-26T06:28:45;16.90;99.90
11144;DHT22;5626;44.730;10.276;2022-10-26T06:31:16;17.10;99.90
11144;DHT22;5626;44.730;10.276;2022-10-26T06:33:46;17.20;99.90
11144;DHT22;5626;44.730;10.276;2022-10-26T06:36:21;17.20;99.90
11144;DHT22;5626;44.730;10.276;2022-10-26T06:38:54;17.30;99.90
11144;DHT22;5626;44.730;10.276;2022-10-26T06:41:29;17.40;99.90
11144;DHT22;5626;44.730;10.276;2022-10-26T06:44:00;17.50;99.90
11144;DHT22;5626;44.730;10.276;2022-10-26T06:46:36;17.60;99.90
11144;DHT22;5626;44.730;10.276;2022-10-26T06:49:15;17.70;99.90
11144;DHT22;5626;44.730;10.276;2022-10-26T06:51:52;17.70;99.90
11144;DHT22;5626;44.730;10.276;2022-10-26T06:54:29;17.90;99.90
11144;DHT22;5626;44.730;10.276;2022-10-26T06:57:01;18.00;99.90
11144;DHT22;5626;44.730;10.276;2022-10-26T06:59:36;18.10;99.90
11144;DHT22;5626;44.730;10.276;2022-10-26T07:02:08;18.10;99.90
11144;DHT22;5626;44.730;10.276;2022-10-26T07:04:38;18.20;99.90
11144;DHT22;5626;44.730;10.276;2022-10-26T07:07:08;18.30;99.90
11144;DHT22;5626;44.730;10.276;2022-10-26T07:09:39;18.40;99.90
11144;DHT22;5626;44.730;10.276;2022-10-26T07:12:10;18.50;99.90
11144;DHT22;5626;44.730;10.276;2022-10-26T07:14:40;18.70;99.90
11144;DHT22;5626;44.730;10.276;2022-10-26T07:17:10;19.70;99.90
11144;DHT22;5626;44.730;10.276;2022-10-26T07:19:39;21.10;99.90
11144;DHT22;5626;44.730;10.276;2022-10-26T07:22:11;22.20;99.80
11144;DHT22;5626;44.730;10.276;2022-10-26T07:24:41;23.20;98.20
11144;DHT22;5626;44.730;10.276;2022-10-26T07:27:11;24.10;96.80
11144;DHT22;5626;44.730;10.276;2022-10-26T07:29:41;24.80;95.60
11144;DHT22;5626;44.730;10.276;2022-10-26T07:32:10;25.50;94.50
11144;DHT22;5626;44.730;10.276;2022-10-26T07:34:40;25.50;93.80
11144;DHT22;5626;44.730;10.276;2022-10-26T07:37:10;25.20;93.50
11144;DHT22;5626;44.730;10.276;2022-10-26T07:39:39;25.30;93.30
11144;DHT22;5626;44.730;10.276;2022-10-26T07:42:10;25.90;92.80
11144;DHT22;5626;44.730;10.276;2022-10-26T07:44:40;26.40;92.20
11144;DHT22;5626;44.730;10.276;2022-10-26T07:47:09;26.90;91.60
11144;DHT22;5626;44.730;10.276;2022-10-26T07:49:39;27.70;91.10
11144;DHT22;5626;44.730;10.276;2022-10-26T07:52:09;28.60;89.10
11144;DHT22;5626;44.730;10.276;2022-10-26T07:54:38;29.20;86.80
11144;DHT22;5626;44.730;10.276;2022-10-26T07:57:08;29.90;84.30
11144;DHT22;5626;44.730;10.276;2022-10-26T07:59:39;30.20;82.20
11144;DHT22;5626;44.730;10.276;2022-10-26T08:02:08;30.70;80.90
11144;DHT22;5626;44.730;10.276;2022-10-26T08:04:38;31.10;79.90
11144;DHT22;5626;44.730;10.276;2022-10-26T08:07:07;31.40;78.20
11144;DHT22;5626;44.730;10.276;2022-10-26T08:09:37;31.70;76.70
11144;DHT22;5626;44.730;10.276;2022-10-26T08:12:06;32.10;76.30
11144;DHT22;5626;44.730;10.276;2022-10-26T08:14:36;32.40;74.70
11144;DHT22;5626;44.730;10.276;2022-10-26T08:17:07;32.90;73.70
11144;DHT22;5626;44.730;10.276;2022-10-26T08:19:36;33.20;72.40
11144;DHT22;5626;44.730;10.276;2022-10-26T08:22:06;33.50;71.10
11144;DHT22;5626;44.730;10.276;2022-10-26T08:24:35;33.80;69.80
11144;DHT22;5626;44.730;10.276;2022-10-26T08:27:06;34.00;69.00
11144;DHT22;5626;44.730;10.276;2022-10-26T08:29:35;34.30;67.90
11144;DHT22;5626;44.730;10.276;2022-10-26T08:32:06;34.60;66.60
11144;DHT22;5626;44.730;10.276;2022-10-26T08:34:36;34.90;65.90
11144;DHT22;5626;44.730;10.276;2022-10-26T08:37:05;35.20;64.10
11144;DHT22;5626;44.730;10.276;2022-10-26T08:39:35;35.50;63.60
11144;DHT22;5626;44.730;10.276;2022-10-26T08:42:09;35.70;62.90
11144;DHT22;5626;44.730;10.276;2022-10-26T08:44:43;36.00;61.90
11144;DHT22;5626;44.730;10.276;2022-10-26T08:47:17;36.20;60.80
11144;DHT22;5626;44.730;10.276;2022-10-26T08:49:51;36.50;60.20
11144;DHT22;5626;44.730;10.276;2022-10-26T08:52:25;36.60;59.00
11144;DHT22;5626;44.730;10.276;2022-10-26T08:54:58;36.90;58.60
11144;DHT22;5626;44.730;10.276;2022-10-26T08:57:34;37.20;57.90
11144;DHT22;5626;44.730;10.276;2022-10-26T09:00:09;37.40;56.80
11144;DHT22;5626;44.730;10.276;2022-10-26T09:02:41;37.30;55.60
11144;DHT22;5626;44.730;10.276;2022-10-26T09:05:15;37.20;55.90
11144;DHT22;5626;44.730;10.276;2022-10-26T09:07:49;37.30;56.40
11144;DHT22;5626;44.730;10.276;2022-10-26T09:10:33;37.30;55.60
11144;DHT22;5626;44.730;10.276;2022-10-26T09:13:31;37.40;55.10
11144;DHT22;5626;44.730;10.276;2022-10-26T09:16:09;37.60;55.20
11144;DHT22;5626;44.730;10.276;2022-10-26T09:18:48;38.00;54.00
11144;DHT22;5626;44.730;10.276;2022-10-26T09:21:31;37.90;53.90
11144;DHT22;5626;44.730;10.276;2022-10-26T09:24:08;38.00;53.30
11144;DHT22;5626;44.730;10.276;2022-10-26T09:26:57;38.00;53.50
11144;DHT22;5626;44.730;10.276;2022-10-26T09:29:34;38.20;53.20
11144;DHT22;5626;44.730;10.276;2022-10-26T09:32:13;38.20;52.90
11144;DHT22;5626;44.730;10.276;2022-10-26T09:34:49;38.50;51.80
11144;DHT22;5626;44.730;10.276;2022-10-26T09:37:23;38.40;51.90
11144;DHT22;5626;44.730;10.276;2022-10-26T09:39:59;38.40;51.90
11144;DHT22;5626;44.730;10.276;2022-10-26T09:42:37;38.60;52.10
11144;DHT22;5626;44.730;10.276;2022-10-26T09:45:14;38.90;51.20
11144;DHT22;5626;44.730;10.276;2022-10-26T09:47:48;39.10;50.60
11144;DHT22;5626;44.730;10.276;2022-10-26T09:50:25;39.10;50.00
11144;DHT22;5626;44.730;10.276;2022-10-26T09:52:55;39.20;50.10
11144;DHT22;5626;44.730;10.276;2022-10-26T09:55:24;39.30;50.10
11144;DHT22;5626;44.730;10.276;2022-10-26T09:57:56;39.50;49.70
11144;DHT22;5626;44.730;10.276;2022-10-26T10:00:27;39.50;49.40
11144;DHT22;5626;44.730;10.276;2022-10-26T10:02:57;39.50;49.20
11144;DHT22;5626;44.730;10.276;2022-10-26T10:05:30;39.70;48.90
11144;DHT22;5626;44.730;10.276;2022-10-26T10:08:21;39.60;48.80
11144;DHT22;5626;44.730;10.276;2022-10-26T10:10:56;39.40;49.00
11144;DHT22;5626;44.730;10.276;2022-10-26T10:13:28;39.30;49.00
11144;DHT22;5626;44.730;10.276;2022-10-26T10:16:03;39.20;49.70
11144;DHT22;5626;44.730;10.276;2022-10-26T10:18:34;39.20;49.20
11144;DHT22;5626;44.730;10.276;2022-10-26T10:21:07;39.30;49.00
11144;DHT22;5626;44.730;10.276;2022-10-26T10:23:47;39.40;48.20
11144;DHT22;5626;44.730;10.276;2022-10-26T10:26:17;39.60;48.30
11144;DHT22;5626;44.730;10.276;2022-10-26T10:28:56;39.50;48.60
11144;DHT22;5626;44.730;10.276;2022-10-26T10:31:28;39.40;48.70
11144;DHT22;5626;44.730;10.276;2022-10-26T10:33:58;39.40;48.90
11144;DHT22;5626;44.730;10.276;2022-10-26T10:36:29;39.50;49.00
11144;DHT22;5626;44.730;10.276;2022-10-26T10:38:59;39.80;48.30
11144;DHT22;5626;44.730;10.276;2022-10-26T10:41:32;39.90;48.40
11144;DHT22;5626;44.730;10.276;2022-10-26T10:44:07;39.80;48.30
11144;DHT22;5626;44.730;10.276;2022-10-26T10:46:43;39.80;48.10
11144;DHT22;5626;44.730;10.276;2022-10-26T10:49:19;39.70;48.00
11144;DHT22;5626;44.730;10.276;2022-10-26T10:51:51;39.50;47.80
11144;DHT22;5626;44.730;10.276;2022-10-26T10:54:25;39.60;48.20
11144;DHT22;5626;44.730;10.276;2022-10-26T10:57:03;39.90;47.70
11144;DHT22;5626;44.730;10.276;2022-10-26T10:59:50;40.10;47.10
11144;DHT22;5626;44.730;10.276;2022-10-26T11:02:43;40.00;47.90
11144;DHT22;5626;44.730;10.276;2022-10-26T11:05:29;40.10;47.30
11144;DHT22;5626;44.730;10.276;2022-10-26T11:08:07;40.10;47.30
11144;DHT22;5626;44.730;10.276;2022-10-26T11:10:39;40.10;46.70
11144;DHT22;5626;44.730;10.276;2022-10-26T11:13:16;39.90;46.70
11144;DHT22;5626;44.730;10.276;2022-10-26T11:15:49;40.10;46.50
11144;DHT22;5626;44.730;10.276;2022-10-26T11:18:24;40.10;46.70
11144;DHT22;5626;44.730;10.276;2022-10-26T11:21:00;40.10;46.70
11144;DHT22;5626;44.730;10.276;2022-10-26T11:23:37;40.10;46.20
11144;DHT22;5626;44.730;10.276;2022-10-26T11:26:11;40.20;46.20
11144;DHT22;5626;44.730;10.276;2022-10-26T11:28:47;40.00;46.70
11144;DHT22;5626;44.730;10.276;2022-10-26T11:31:22;39.80;46.40
11144;DHT22;5626;44.730;10.276;2022-10-26T11:34:16;39.40;46.70
11144;DHT22;5626;44.730;10.276;2022-10-26T11:36:53;39.40;47.30
11144;DHT22;5626;44.730;10.276;2022-10-26T11:39:34;40.10;46.60
11144;DHT22;5626;44.730;10.276;2022-10-26T11:42:10;40.30;46.10
11144;DHT22;5626;44.730;10.276;2022-10-26T11:44:47;40.30;45.40
11144;DHT22;5626;44.730;10.276;2022-10-26T11:47:23;40.60;45.20
11144;DHT22;5626;44.730;10.276;2022-10-26T11:50:03;40.70;45.20
11144;DHT22;5626;44.730;10.276;2022-10-26T11:52:38;40.70;44.40
11144;DHT22;5626;44.730;10.276;2022-10-26T11:55:11;41.10;45.00
11144;DHT22;5626;44.730;10.276;2022-10-26T11:57:41;41.00;44.30
11144;DHT22;5626;44.730;10.276;2022-10-26T12:00:15;40.90;43.80
11144;DHT22;5626;44.730;10.276;2022-10-26T12:02:49;40.60;44.40
11144;DHT22;5626;44.730;10.276;2022-10-26T12:05:21;40.70;44.50
11144;DHT22;5626;44.730;10.276;2022-10-26T12:07:53;40.60;44.80
11144;DHT22;5626;44.730;10.276;2022-10-26T12:10:28;40.50;44.30
11144;DHT22;5626;44.730;10.276;2022-10-26T12:13:04;39.10;46.40
11144;DHT22;5626;44.730;10.276;2022-10-26T12:15:40;36.90;49.80
11144;DHT22;5626;44.730;10.276;2022-10-26T12:18:33;34.40;54.10
11144;DHT22;5626;44.730;10.276;2022-10-26T12:21:25;32.40;58.70
11144;DHT22;5626;44.730;10.276;2022-10-26T12:23:57;31.10;60.30
11144;DHT22;5626;44.730;10.276;2022-10-26T12:26:53;30.10;63.60
11144;DHT22;5626;44.730;10.276;2022-10-26T12:29:38;29.40;66.40
11144;DHT22;5626;44.730;10.276;2022-10-26T12:35:46;28.20;70.50
11144;DHT22;5626;44.730;10.276;2022-10-26T12:41:26;27.30;73.20
11144;DHT22;5626;44.730;10.276;2022-10-26T12:44:02;27.20;74.20
11144;DHT22;5626;44.730;10.276;2022-10-26T12:46:42;27.00;75.20
11144;DHT22;5626;44.730;10.276;2022-10-26T12:52:25;27.90;73.60
11144;DHT22;5626;44.730;10.276;2022-10-26T12:58:19;32.70;61.30
11144;DHT22;5626;44.730;10.276;2022-10-26T13:01:18;34.50;57.20
11144;DHT22;5626;44.730;10.276;2022-10-26T13:03:59;35.20;55.40
11144;DHT22;5626;44.730;10.276;2022-10-26T13:06:46;35.90;54.00
11144;DHT22;5626;44.730;10.276;2022-10-26T13:09:21;36.00;53.00
11144;DHT22;5626;44.730;10.276;2022-10-26T13:11:54;36.30;52.30
11144;DHT22;5626;44.730;10.276;2022-10-26T13:14:26;36.40;52.00
11144;DHT22;5626;44.730;10.276;2022-10-26T13:16:58;36.60;51.60
11144;DHT22;5626;44.730;10.276;2022-10-26T13:19:31;36.40;51.80
11144;DHT22;5626;44.730;10.276;2022-10-26T13:22:02;36.60;51.50
11144;DHT22;5626;44.730;10.276;2022-10-26T13:24:33;36.30;51.60
11144;DHT22;5626;44.730;10.276;2022-10-26T13:27:38;35.30;53.30
11144;DHT22;5626;44.730;10.276;2022-10-26T13:33:25;33.00;58.00
11144;DHT22;5626;44.730;10.276;2022-10-26T13:35:58;31.30;60.80
11144;DHT22;5626;44.730;10.276;2022-10-26T13:38:31;30.30;63.40
11144;DHT22;5626;44.730;10.276;2022-10-26T13:41:12;29.40;66.10
11144;DHT22;5626;44.730;10.276;2022-10-26T13:43:46;28.70;68.40
11144;DHT22;5626;44.730;10.276;2022-10-26T13:46:25;28.20;70.30
11144;DHT22;5626;44.730;10.276;2022-10-26T13:49:04;27.70;72.00
11144;DHT22;5626;44.730;10.276;2022-10-26T13:51:40;27.30;73.60
11144;DHT22;5626;44.730;10.276;2022-10-26T13:54:19;27.00;74.90
11144;DHT22;5626;44.730;10.276;2022-10-26T13:56:58;26.60;75.60
11144;DHT22;5626;44.730;10.276;2022-10-26T13:59:30;26.30;76.60
11144;DHT22;5626;44.730;10.276;2022-10-26T14:02:15;26.20;77.50
11144;DHT22;5626;44.730;10.276;2022-10-26T14:04:47;25.90;78.10
11144;DHT22;5626;44.730;10.276;2022-10-26T14:07:19;25.80;79.40
11144;DHT22;5626;44.730;10.276;2022-10-26T14:09:52;25.60;79.60
11144;DHT22;5626;44.730;10.276;2022-10-26T14:12:23;25.50;80.30
11144;DHT22;5626;44.730;10.276;2022-10-26T14:14:56;25.30;80.70
11144;DHT22;5626;44.730;10.276;2022-10-26T14:17:28;25.10;81.80
11144;DHT22;5626;44.730;10.276;2022-10-26T14:19:59;24.90;82.40
11144;DHT22;5626;44.730;10.276;2022-10-26T14:22:29;24.80;83.00
11144;DHT22;5626;44.730;10.276;2022-10-26T14:24:59;24.80;83.50
11144;DHT22;5626;44.730;10.276;2022-10-26T14:27:31;24.70;83.70
11144;DHT22;5626;44.730;10.276;2022-10-26T14:30:01;24.70;84.10
11144;DHT22;5626;44.730;10.276;2022-10-26T14:32:49;24.60;84.50
11144;DHT22;5626;44.730;10.276;2022-10-26T14:35:23;24.50;85.00
11144;DHT22;5626;44.730;10.276;2022-10-26T14:37:55;24.50;85.20
11144;DHT22;5626;44.730;10.276;2022-10-26T14:40:28;24.40;85.90
11144;DHT22;5626;44.730;10.276;2022-10-26T14:42:59;24.30;86.80
11144;DHT22;5626;44.730;10.276;2022-10-26T14:45:31;24.20;87.50
11144;DHT22;5626;44.730;10.276;2022-10-26T14:48:22;24.00;88.30
11144;DHT22;5626;44.730;10.276;2022-10-26T14:51:01;23.90;89.30
11144;DHT22;5626;44.730;10.276;2022-10-26T14:53:37;23.80;90.10
11144;DHT22;5626;44.730;10.276;2022-10-26T14:56:20;23.70;90.30
11144;DHT22;5626;44.730;10.276;2022-10-26T14:58:50;23.60;90.50
11144;DHT22;5626;44.730;10.276;2022-10-26T15:01:30;23.60;90.70
11144;DHT22;5626;44.730;10.276;2022-10-26T15:04:04;23.60;90.90
11144;DHT22;5626;44.730;10.276;2022-10-26T15:06:42;23.70;91.10
11144;DHT22;5626;44.730;10.276;2022-10-26T15:09:36;23.60;91.20
11144;DHT22;5626;44.730;10.276;2022-10-26T15:12:06;23.60;91.40
11144;DHT22;5626;44.730;10.276;2022-10-26T15:14:36;23.60;91.50
11144;DHT22;5626;44.730;10.276;2022-10-26T15:17:20;23.60;91.60
11144;DHT22;5626;44.730;10.276;2022-10-26T15:19:51;23.60;91.70
11144;DHT22;5626;44.730;10.276;2022-10-26T15:22:24;23.60;91.70
11144;DHT22;5626;44.730;10.276;2022-10-26T15:24:57;23.80;91.50
11144;DHT22;5626;44.730;10.276;2022-10-26T15:27:29;24.10;91.10
11144;DHT22;5626;44.730;10.276;2022-10-26T15:30:15;24.00;91.20
11144;DHT22;5626;44.730;10.276;2022-10-26T15:32:45;23.90;91.40
11144;DHT22;5626;44.730;10.276;2022-10-26T15:35:23;23.70;91.60
11144;DHT22;5626;44.730;10.276;2022-10-26T15:37:56;23.50;92.00
11144;DHT22;5626;44.730;10.276;2022-10-26T15:40:27;23.40;92.40
11144;DHT22;5626;44.730;10.276;2022-10-26T15:42:59;23.30;92.70
11144;DHT22;5626;44.730;10.276;2022-10-26T15:45:30;23.10;93.10
11144;DHT22;5626;44.730;10.276;2022-10-26T15:48:17;23.00;93.50
11144;DHT22;5626;44.730;10.276;2022-10-26T15:50:47;22.90;93.80
11144;DHT22;5626;44.730;10.276;2022-10-26T15:53:20;22.70;94.10
11144;DHT22;5626;44.730;10.276;2022-10-26T15:55:52;22.60;94.30
11144;DHT22;5626;44.730;10.276;2022-10-26T15:58:22;22.50;94.50
11144;DHT22;5626;44.730;10.276;2022-10-26T16:00:52;22.40;94.80
11144;DHT22;5626;44.730;10.276;2022-10-26T16:03:23;22.30;95.10
11144;DHT22;5626;44.730;10.276;2022-10-26T16:05:56;22.10;95.40
11144;DHT22;5626;44.730;10.276;2022-10-26T16:08:29;22.00;95.80
11144;DHT22;5626;44.730;10.276;2022-10-26T16:10:59;21.90;96.20
11144;DHT22;5626;44.730;10.276;2022-10-26T16:13:29;21.80;96.40
11144;DHT22;5626;44.730;10.276;2022-10-26T16:15:58;21.70;96.80
11144;DHT22;5626;44.730;10.276;2022-10-26T16:18:28;21.70;96.90
11144;DHT22;5626;44.730;10.276;2022-10-26T16:20:57;21.60;97.00
11144;DHT22;5626;44.730;10.276;2022-10-26T16:23:28;21.60;97.20
11144;DHT22;5626;44.730;10.276;2022-10-26T16:25:58;21.50;97.30
11144;DHT22;5626;44.730;10.276;2022-10-26T16:28:27;21.40;97.50